sensor_id;sensor_type;location;lat;lon;timestamp;P1;durP1;ratioP1;P2;durP2;ratioP2
55067;SDS011;40965;52.368;9.712;2022-10-04T00:01:29;4.63;;;1.67;;
55067;SDS011;40965;52.368;9.712;2022-10-04T00:04:09;4.57;;;1.80;;
55067;SDS011;40965;52.368;9.712;2022-10-04T00:06:54;5.10;;;1.40;;
55067;SDS011;40965;52.368;9.712;2022-10-04T00:11:57;4.00;;;1.30;;
55067;SDS011;40965;52.368;9.712;2022-10-04T00:14:27;7.05;;;2.53;;
55067;SDS011;40965;52.368;9.712;2022-10-04T00:17:06;4.00;;;1.35;;
55067;SDS011;40965;52.368;9.712;2022-10-04T00:19:40;3.97;;;1.17;;
55067;SDS011;40965;52.368;9.712;2022-10-04T00:22:18;5.22;;;0.95;;
55067;SDS011;40965;52.368;9.712;2022-10-04T00:27:34;3.13;;;1.30;;
55067;SDS011;40965;52.368;9.712;2022-10-04T00:35:44;2.60;;;0.95;;
55067;SDS011;40965;52.368;9.712;2022-10-04T00:40:25;7.10;;;1.42;;
55067;SDS011;40965;52.368;9.712;2022-10-04T00:42:57;4.38;;;1.30;;
55067;SDS011;40965;52.368;9.712;2022-10-04T00:45:28;3.75;;;1.40;;
55067;SDS011;40965;52.368;9.712;2022-10-04T00:51:10;2.40;;;1.13;;
55067;SDS011;40965;52.368;9.712;2022-10-04T00:53:39;4.32;;;1.63;;
55067;SDS011;40965;52.368;9.712;2022-10-04T00:56:14;4.65;;;1.60;;
55067;SDS011;40965;52.368;9.712;2022-10-04T01:01:48;1.73;;;1.08;;
55067;SDS011;40965;52.368;9.712;2022-10-04T01:04:26;5.63;;;1.65;;
55067;SDS011;40965;52.368;9.712;2022-10-04T01:06:57;6.93;;;1.77;;
55067;SDS011;40965;52.368;9.712;2022-10-04T01:09:26;4.28;;;1.88;;
55067;SDS011;40965;52.368;9.712;2022-10-04T01:11:58;5.93;;;2.15;;
55067;SDS011;40965;52.368;9.712;2022-10-04T01:14:33;5.55;;;1.27;;
55067;SDS011;40965;52.368;9.712;2022-10-04T01:17:11;2.47;;;1.60;;
55067;SDS011;40965;52.368;9.712;2022-10-04T01:19:38;4.72;;;1.95;;
55067;SDS011;40965;52.368;9.712;2022-10-04T01:22:29;5.88;;;2.80;;
55067;SDS011;40965;52.368;9.712;2022-10-04T01:24:59;3.30;;;2.28;;
55067;SDS011;40965;52.368;9.712;2022-10-04T01:30:05;7.07;;;2.50;;
55067;SDS011;40965;52.368;9.712;2022-10-04T01:32:40;4.03;;;2.50;;
55067;SDS011;40965;52.368;9.712;2022-10-04T01:35:07;6.90;;;2.80;;
55067;SDS011;40965;52.368;9.712;2022-10-04T01:37:36;2.65;;;2.15;;
55067;SDS011;40965;52.368;9.712;2022-10-04T01:40:05;5.05;;;2.85;;
55067;SDS011;40965;52.368;9.712;2022-10-04T01:42:55;10.55;;;2.78;;
55067;SDS011;40965;52.368;9.712;2022-10-04T01:45:27;4.55;;;2.53;;
55067;SDS011;40965;52.368;9.712;2022-10-04T01:48:11;4.65;;;2.75;;
55067;SDS011;40965;52.368;9.712;2022-10-04T01:51:43;3.60;;;1.90;;
55067;SDS011;40965;52.368;9.712;2022-10-04T01:53:41;4.80;;;1.90;;
55067;SDS011;40965;52.368;9.712;2022-10-04T01:56:13;4.45;;;1.98;;
55067;SDS011;40965;52.368;9.712;2022-10-04T01:58:46;5.47;;;2.03;;
55067;SDS011;40965;52.368;9.712;2022-10-04T02:03:58;5.55;;;2.22;;
55067;SDS011;40965;52.368;9.712;2022-10-04T02:06:35;5.25;;;1.67;;
55067;SDS011;40965;52.368;9.712;2022-10-04T02:09:11;2.92;;;1.70;;
55067;SDS011;40965;52.368;9.712;2022-10-04T02:11:43;5.53;;;2.08;;
55067;SDS011;40965;52.368;9.712;2022-10-04T02:14:16;11.20;;;1.75;;
55067;SDS011;40965;52.368;9.712;2022-10-04T02:16:46;4.07;;;1.73;;
55067;SDS011;40965;52.368;9.712;2022-10-04T02:19:16;2.97;;;2.10;;
55067;SDS011;40965;52.368;9.712;2022-10-04T02:21:43;8.20;;;2.22;;
55067;SDS011;40965;52.368;9.712;2022-10-04T02:24:11;4.47;;;1.95;;
55067;SDS011;40965;52.368;9.712;2022-10-04T02:26:38;2.78;;;1.58;;
55067;SDS011;40965;52.368;9.712;2022-10-04T02:29:05;5.82;;;1.48;;
55067;SDS011;40965;52.368;9.712;2022-10-04T02:31:31;2.80;;;1.52;;
55067;SDS011;40965;52.368;9.712;2022-10-04T02:34:16;4.20;;;1.73;;
55067;SDS011;40965;52.368;9.712;2022-10-04T02:36:44;4.15;;;2.10;;
55067;SDS011;40965;52.368;9.712;2022-10-04T02:39:15;12.63;;;3.03;;
55067;SDS011;40965;52.368;9.712;2022-10-04T02:42:19;9.23;;;2.33;;
55067;SDS011;40965;52.368;9.712;2022-10-04T02:45:08;5.28;;;1.92;;
55067;SDS011;40965;52.368;9.712;2022-10-04T02:47:50;4.43;;;1.20;;
55067;SDS011;40965;52.368;9.712;2022-10-04T02:50:21;4.72;;;2.03;;
55067;SDS011;40965;52.368;9.712;2022-10-04T02:52:55;2.88;;;1.27;;
55067;SDS011;40965;52.368;9.712;2022-10-04T02:55:26;4.80;;;1.92;;
55067;SDS011;40965;52.368;9.712;2022-10-04T02:57:56;5.57;;;1.83;;
55067;SDS011;40965;52.368;9.712;2022-10-04T03:00:24;8.25;;;2.33;;
55067;SDS011;40965;52.368;9.712;2022-10-04T03:03:14;4.97;;;1.50;;
55067;SDS011;40965;52.368;9.712;2022-10-04T03:05:52;1.75;;;1.42;;
55067;SDS011;40965;52.368;9.712;2022-10-04T03:08:34;5.45;;;2.90;;
55067;SDS011;40965;52.368;9.712;2022-10-04T03:11:23;4.75;;;1.63;;
55067;SDS011;40965;52.368;9.712;2022-10-04T03:13:53;6.03;;;2.03;;
55067;SDS011;40965;52.368;9.712;2022-10-04T03:16:22;2.65;;;1.95;;
55067;SDS011;40965;52.368;9.712;2022-10-04T03:18:49;3.35;;;1.73;;
55067;SDS011;40965;52.368;9.712;2022-10-04T03:21:18;7.32;;;2.13;;
55067;SDS011;40965;52.368;9.712;2022-10-04T03:23:47;5.45;;;2.50;;
55067;SDS011;40965;52.368;9.712;2022-10-04T03:29:02;16.33;;;2.25;;
55067;SDS011;40965;52.368;9.712;2022-10-04T03:31:34;6.57;;;2.15;;
55067;SDS011;40965;52.368;9.712;2022-10-04T03:34:04;9.40;;;2.55;;
55067;SDS011;40965;52.368;9.712;2022-10-04T03:36:38;2.20;;;1.58;;
55067;SDS011;40965;52.368;9.712;2022-10-04T03:39:06;4.82;;;1.92;;
55067;SDS011;40965;52.368;9.712;2022-10-04T03:41:39;4.03;;;1.77;;
55067;SDS011;40965;52.368;9.712;2022-10-04T03:44:07;8.68;;;2.50;;
55067;SDS011;40965;52.368;9.712;2022-10-04T03:46:41;4.43;;;1.95;;
55067;SDS011;40965;52.368;9.712;2022-10-04T03:49:10;5.60;;;2.17;;
55067;SDS011;40965;52.368;9.712;2022-10-04T03:51:43;4.82;;;2.13;;
55067;SDS011;40965;52.368;9.712;2022-10-04T03:54:15;7.47;;;2.28;;
55067;SDS011;40965;52.368;9.712;2022-10-04T03:56:45;3.17;;;2.05;;
55067;SDS011;40965;52.368;9.712;2022-10-04T03:59:14;3.65;;;1.75;;
55067;SDS011;40965;52.368;9.712;2022-10-04T04:01:47;3.78;;;2.50;;
55067;SDS011;40965;52.368;9.712;2022-10-04T04:12:45;5.38;;;1.55;;
55067;SDS011;40965;52.368;9.712;2022-10-04T04:15:13;3.10;;;1.48;;
55067;SDS011;40965;52.368;9.712;2022-10-04T04:17:41;7.75;;;1.85;;
55067;SDS011;40965;52.368;9.712;2022-10-04T04:20:32;6.10;;;1.70;;
55067;SDS011;40965;52.368;9.712;2022-10-04T04:23:11;6.57;;;2.00;;
55067;SDS011;40965;52.368;9.712;2022-10-04T04:25:50;3.78;;;1.75;;
55067;SDS011;40965;52.368;9.712;2022-10-04T04:31:00;5.75;;;1.77;;
55067;SDS011;40965;52.368;9.712;2022-10-04T04:33:44;3.20;;;1.33;;
55067;SDS011;40965;52.368;9.712;2022-10-04T04:36:16;5.40;;;1.95;;
55067;SDS011;40965;52.368;9.712;2022-10-04T04:38:43;6.38;;;2.00;;
55067;SDS011;40965;52.368;9.712;2022-10-04T04:41:23;9.65;;;2.53;;
55067;SDS011;40965;52.368;9.712;2022-10-04T04:43:53;5.22;;;1.90;;
55067;SDS011;40965;52.368;9.712;2022-10-04T04:46:19;8.85;;;1.77;;
55067;SDS011;40965;52.368;9.712;2022-10-04T04:48:47;3.70;;;1.60;;
55067;SDS011;40965;52.368;9.712;2022-10-04T04:51:20;4.53;;;1.70;;
55067;SDS011;40965;52.368;9.712;2022-10-04T04:53:49;4.95;;;1.40;;
55067;SDS011;40965;52.368;9.712;2022-10-04T04:56:20;6.85;;;2.10;;
55067;SDS011;40965;52.368;9.712;2022-10-04T04:58:50;2.75;;;1.40;;
55067;SDS011;40965;52.368;9.712;2022-10-04T05:01:23;7.82;;;2.08;;
55067;SDS011;40965;52.368;9.712;2022-10-04T05:06:32;4.28;;;2.97;;
55067;SDS011;40965;52.368;9.712;2022-10-04T05:09:00;4.05;;;1.58;;
55067;SDS011;40965;52.368;9.712;2022-10-04T05:11:28;5.72;;;2.55;;
55067;SDS011;40965;52.368;9.712;2022-10-04T05:19:21;9.25;;;2.35;;
55067;SDS011;40965;52.368;9.712;2022-10-04T05:21:53;6.63;;;1.40;;
55067;SDS011;40965;52.368;9.712;2022-10-04T05:24:23;4.82;;;2.00;;
55067;SDS011;40965;52.368;9.712;2022-10-04T05:26:54;5.28;;;2.03;;
55067;SDS011;40965;52.368;9.712;2022-10-04T05:29:25;6.53;;;2.47;;
55067;SDS011;40965;52.368;9.712;2022-10-04T05:32:02;9.30;;;3.08;;
55067;SDS011;40965;52.368;9.712;2022-10-04T05:34:38;2.95;;;2.00;;
55067;SDS011;40965;52.368;9.712;2022-10-04T05:43:28;12.02;;;2.25;;
55067;SDS011;40965;52.368;9.712;2022-10-04T05:48:45;8.57;;;2.35;;
55067;SDS011;40965;52.368;9.712;2022-10-04T05:51:25;6.35;;;2.92;;
55067;SDS011;40965;52.368;9.712;2022-10-04T05:53:54;11.38;;;3.17;;
55067;SDS011;40965;52.368;9.712;2022-10-04T05:56:40;6.38;;;2.25;;
55067;SDS011;40965;52.368;9.712;2022-10-04T06:04:47;4.65;;;1.85;;
55067;SDS011;40965;52.368;9.712;2022-10-04T06:07:45;4.05;;;2.20;;
55067;SDS011;40965;52.368;9.712;2022-10-04T06:23:45;10.02;;;5.00;;
55067;SDS011;40965;52.368;9.712;2022-10-04T06:26:17;13.80;;;3.72;;
55067;SDS011;40965;52.368;9.712;2022-10-04T06:28:50;5.43;;;3.03;;
55067;SDS011;40965;52.368;9.712;2022-10-04T06:46:39;13.27;;;4.85;;
55067;SDS011;40965;52.368;9.712;2022-10-04T06:50:12;7.47;;;3.35;;
55067;SDS011;40965;52.368;9.712;2022-10-04T06:52:38;15.82;;;6.07;;
55067;SDS011;40965;52.368;9.712;2022-10-04T06:55:26;15.90;;;5.00;;
55067;SDS011;40965;52.368;9.712;2022-10-04T07:01:50;9.43;;;3.83;;
55067;SDS011;40965;52.368;9.712;2022-10-04T07:04:11;15.93;;;8.45;;
55067;SDS011;40965;52.368;9.712;2022-10-04T07:15:27;5.35;;;2.70;;
55067;SDS011;40965;52.368;9.712;2022-10-04T07:18:11;6.63;;;2.70;;
55067;SDS011;40965;52.368;9.712;2022-10-04T07:20:41;10.48;;;2.33;;
55067;SDS011;40965;52.368;9.712;2022-10-04T07:25:54;9.13;;;2.25;;
55067;SDS011;40965;52.368;9.712;2022-10-04T07:28:28;9.75;;;2.58;;
55067;SDS011;40965;52.368;9.712;2022-10-04T07:31:20;4.95;;;2.55;;
55067;SDS011;40965;52.368;9.712;2022-10-04T07:36:56;10.35;;;4.60;;
55067;SDS011;40965;52.368;9.712;2022-10-04T07:42:20;10.15;;;2.47;;
55067;SDS011;40965;52.368;9.712;2022-10-04T07:45:02;6.55;;;2.05;;
55067;SDS011;40965;52.368;9.712;2022-10-04T07:47:30;8.10;;;2.03;;
55067;SDS011;40965;52.368;9.712;2022-10-04T07:49:57;4.85;;;2.45;;
55067;SDS011;40965;52.368;9.712;2022-10-04T07:52:41;6.43;;;2.65;;
55067;SDS011;40965;52.368;9.712;2022-10-04T08:00:44;6.68;;;2.90;;
55067;SDS011;40965;52.368;9.712;2022-10-04T08:03:19;5.77;;;2.70;;
55067;SDS011;40965;52.368;9.712;2022-10-04T08:06:14;3.97;;;1.58;;
55067;SDS011;40965;52.368;9.712;2022-10-04T08:11:36;8.45;;;2.75;;
55067;SDS011;40965;52.368;9.712;2022-10-04T08:14:18;9.15;;;2.25;;
55067;SDS011;40965;52.368;9.712;2022-10-04T08:19:40;4.18;;;1.90;;
55067;SDS011;40965;52.368;9.712;2022-10-04T08:22:18;7.25;;;2.30;;
55067;SDS011;40965;52.368;9.712;2022-10-04T08:39:01;7.15;;;2.63;;
55067;SDS011;40965;52.368;9.712;2022-10-04T08:53:10;5.85;;;2.03;;
55067;SDS011;40965;52.368;9.712;2022-10-04T08:59:04;7.97;;;2.80;;
55067;SDS011;40965;52.368;9.712;2022-10-04T09:07:45;6.38;;;2.15;;
55067;SDS011;40965;52.368;9.712;2022-10-04T09:16:07;8.25;;;2.60;;
55067;SDS011;40965;52.368;9.712;2022-10-04T09:21:11;6.45;;;2.03;;
55067;SDS011;40965;52.368;9.712;2022-10-04T09:40:48;7.68;;;2.20;;
55067;SDS011;40965;52.368;9.712;2022-10-04T09:46:46;4.18;;;1.90;;
55067;SDS011;40965;52.368;9.712;2022-10-04T09:52:04;4.45;;;2.08;;
55067;SDS011;40965;52.368;9.712;2022-10-04T09:55:19;5.43;;;1.45;;
55067;SDS011;40965;52.368;9.712;2022-10-04T10:09:20;4.25;;;1.55;;
55067;SDS011;40965;52.368;9.712;2022-10-04T10:16:02;4.38;;;1.75;;
55067;SDS011;40965;52.368;9.712;2022-10-04T10:21:34;5.82;;;2.30;;
55067;SDS011;40965;52.368;9.712;2022-10-04T10:27:34;6.78;;;1.77;;
55067;SDS011;40965;52.368;9.712;2022-10-04T10:30:24;6.80;;;2.42;;
55067;SDS011;40965;52.368;9.712;2022-10-04T10:46:49;3.88;;;1.40;;
55067;SDS011;40965;52.368;9.712;2022-10-04T10:57:41;3.83;;;1.30;;
55067;SDS011;40965;52.368;9.712;2022-10-04T11:00:39;3.35;;;1.20;;
55067;SDS011;40965;52.368;9.712;2022-10-04T11:03:35;3.70;;;0.77;;
55067;SDS011;40965;52.368;9.712;2022-10-04T11:17:38;7.95;;;1.20;;
55067;SDS011;40965;52.368;9.712;2022-10-04T11:23:43;2.67;;;0.82;;
55067;SDS011;40965;52.368;9.712;2022-10-04T11:49:19;6.18;;;1.40;;
55067;SDS011;40965;52.368;9.712;2022-10-04T11:54:45;2.40;;;1.08;;
55067;SDS011;40965;52.368;9.712;2022-10-04T12:11:12;3.75;;;1.15;;
55067;SDS011;40965;52.368;9.712;2022-10-04T12:22:55;4.95;;;1.80;;
55067;SDS011;40965;52.368;9.712;2022-10-04T12:28:49;6.30;;;2.15;;
55067;SDS011;40965;52.368;9.712;2022-10-04T12:36:59;3.20;;;1.05;;
55067;SDS011;40965;52.368;9.712;2022-10-04T12:39:46;2.97;;;0.77;;
55067;SDS011;40965;52.368;9.712;2022-10-04T12:44:54;4.40;;;1.17;;
55067;SDS011;40965;52.368;9.712;2022-10-04T12:53:58;1.70;;;0.90;;
55067;SDS011;40965;52.368;9.712;2022-10-04T13:02:34;3.83;;;1.65;;
55067;SDS011;40965;52.368;9.712;2022-10-04T13:05:20;1.98;;;1.08;;
55067;SDS011;40965;52.368;9.712;2022-10-04T13:10:57;2.13;;;1.05;;
55067;SDS011;40965;52.368;9.712;2022-10-04T13:16:44;2.03;;;1.80;;
55067;SDS011;40965;52.368;9.712;2022-10-04T13:19:34;3.90;;;1.80;;
55067;SDS011;40965;52.368;9.712;2022-10-04T13:24:58;9.95;;;1.50;;
55067;SDS011;40965;52.368;9.712;2022-10-04T13:27:41;4.90;;;1.58;;
55067;SDS011;40965;52.368;9.712;2022-10-04T13:30:21;2.63;;;1.15;;
55067;SDS011;40965;52.368;9.712;2022-10-04T13:36:00;1.52;;;1.42;;
55067;SDS011;40965;52.368;9.712;2022-10-04T13:38:39;2.35;;;1.58;;
55067;SDS011;40965;52.368;9.712;2022-10-04T13:49:59;2.75;;;1.77;;
55067;SDS011;40965;52.368;9.712;2022-10-04T13:55:47;2.97;;;1.65;;
55067;SDS011;40965;52.368;9.712;2022-10-04T14:04:03;4.03;;;1.60;;
55067;SDS011;40965;52.368;9.712;2022-10-04T14:07:10;3.38;;;1.67;;
55067;SDS011;40965;52.368;9.712;2022-10-04T14:10:09;3.03;;;1.38;;
55067;SDS011;40965;52.368;9.712;2022-10-04T14:25:59;2.35;;;1.45;;
55067;SDS011;40965;52.368;9.712;2022-10-04T14:31:57;4.05;;;1.30;;
55067;SDS011;40965;52.368;9.712;2022-10-04T14:35:26;2.65;;;1.23;;
55067;SDS011;40965;52.368;9.712;2022-10-04T14:54:44;4.57;;;2.00;;
55067;SDS011;40965;52.368;9.712;2022-10-04T15:00:29;3.42;;;1.88;;
55067;SDS011;40965;52.368;9.712;2022-10-04T15:10:59;3.55;;;2.15;;
55067;SDS011;40965;52.368;9.712;2022-10-04T15:13:32;5.90;;;2.38;;
55067;SDS011;40965;52.368;9.712;2022-10-04T15:18:56;2.95;;;1.75;;
55067;SDS011;40965;52.368;9.712;2022-10-04T15:40:31;2.33;;;1.55;;
55067;SDS011;40965;52.368;9.712;2022-10-04T15:43:17;5.43;;;1.42;;
55067;SDS011;40965;52.368;9.712;2022-10-04T15:48:45;4.80;;;1.75;;
55067;SDS011;40965;52.368;9.712;2022-10-04T16:07:39;3.30;;;1.35;;
55067;SDS011;40965;52.368;9.712;2022-10-04T16:10:54;4.22;;;2.63;;
55067;SDS011;40965;52.368;9.712;2022-10-04T16:13:42;3.72;;;1.88;;
55067;SDS011;40965;52.368;9.712;2022-10-04T16:16:24;3.72;;;1.92;;
55067;SDS011;40965;52.368;9.712;2022-10-04T16:19:06;3.50;;;2.78;;
55067;SDS011;40965;52.368;9.712;2022-10-04T16:22:09;6.57;;;2.42;;
55067;SDS011;40965;52.368;9.712;2022-10-04T16:24:41;4.60;;;2.97;;
55067;SDS011;40965;52.368;9.712;2022-10-04T16:27:18;3.53;;;2.33;;
55067;SDS011;40965;52.368;9.712;2022-10-04T16:29:59;3.35;;;1.75;;
55067;SDS011;40965;52.368;9.712;2022-10-04T16:32:45;4.15;;;1.75;;
55067;SDS011;40965;52.368;9.712;2022-10-04T16:41:38;4.88;;;2.10;;
55067;SDS011;40965;52.368;9.712;2022-10-04T16:43:47;6.22;;;2.58;;
55067;SDS011;40965;52.368;9.712;2022-10-04T16:46:34;3.28;;;1.92;;
55067;SDS011;40965;52.368;9.712;2022-10-04T16:49:19;2.80;;;2.55;;
55067;SDS011;40965;52.368;9.712;2022-10-04T16:52:06;5.32;;;2.67;;
55067;SDS011;40965;52.368;9.712;2022-10-04T16:57:22;3.55;;;2.80;;
55067;SDS011;40965;52.368;9.712;2022-10-04T16:59:55;7.53;;;4.35;;
55067;SDS011;40965;52.368;9.712;2022-10-04T17:05:02;7.60;;;5.78;;
55067;SDS011;40965;52.368;9.712;2022-10-04T17:21:57;7.25;;;3.50;;
55067;SDS011;40965;52.368;9.712;2022-10-04T17:24:49;4.63;;;2.90;;
55067;SDS011;40965;52.368;9.712;2022-10-04T17:30:20;6.78;;;3.25;;
55067;SDS011;40965;52.368;9.712;2022-10-04T17:33:02;5.75;;;3.13;;
55067;SDS011;40965;52.368;9.712;2022-10-04T17:35:56;6.95;;;3.35;;
55067;SDS011;40965;52.368;9.712;2022-10-04T17:38:35;5.10;;;3.20;;
55067;SDS011;40965;52.368;9.712;2022-10-04T17:46:21;6.05;;;4.05;;
55067;SDS011;40965;52.368;9.712;2022-10-04T17:49:01;5.30;;;3.47;;
55067;SDS011;40965;52.368;9.712;2022-10-04T17:52:01;4.75;;;3.90;;
55067;SDS011;40965;52.368;9.712;2022-10-04T17:54:57;4.75;;;3.78;;
55067;SDS011;40965;52.368;9.712;2022-10-04T17:57:46;4.90;;;3.28;;
55067;SDS011;40965;52.368;9.712;2022-10-04T18:00:17;4.68;;;3.17;;
55067;SDS011;40965;52.368;9.712;2022-10-04T18:03:07;4.28;;;3.22;;
55067;SDS011;40965;52.368;9.712;2022-10-04T18:05:48;7.43;;;2.97;;
55067;SDS011;40965;52.368;9.712;2022-10-04T18:11:22;4.57;;;2.45;;
55067;SDS011;40965;52.368;9.712;2022-10-04T18:13:58;3.35;;;2.88;;
55067;SDS011;40965;52.368;9.712;2022-10-04T18:16:30;8.02;;;2.33;;
55067;SDS011;40965;52.368;9.712;2022-10-04T18:19:32;4.03;;;3.58;;
55067;SDS011;40965;52.368;9.712;2022-10-04T18:22:15;9.85;;;6.07;;
55067;SDS011;40965;52.368;9.712;2022-10-04T18:25:00;7.25;;;4.13;;
55067;SDS011;40965;52.368;9.712;2022-10-04T18:33:16;9.13;;;2.67;;
55067;SDS011;40965;52.368;9.712;2022-10-04T18:36:29;4.22;;;3.05;;
55067;SDS011;40965;52.368;9.712;2022-10-04T18:38:57;5.13;;;3.22;;
55067;SDS011;40965;52.368;9.712;2022-10-04T18:41:42;3.78;;;2.92;;
55067;SDS011;40965;52.368;9.712;2022-10-04T18:47:34;7.28;;;3.65;;
55067;SDS011;40965;52.368;9.712;2022-10-04T18:50:13;6.63;;;3.78;;
55067;SDS011;40965;52.368;9.712;2022-10-04T18:52:57;7.20;;;2.90;;
55067;SDS011;40965;52.368;9.712;2022-10-04T19:04:34;6.72;;;4.40;;
55067;SDS011;40965;52.368;9.712;2022-10-04T19:07:28;7.32;;;4.78;;
55067;SDS011;40965;52.368;9.712;2022-10-04T19:10:20;6.85;;;4.45;;
55067;SDS011;40965;52.368;9.712;2022-10-04T19:15:52;4.50;;;3.20;;
55067;SDS011;40965;52.368;9.712;2022-10-04T19:18:53;5.28;;;3.28;;
55067;SDS011;40965;52.368;9.712;2022-10-04T19:24:15;5.50;;;3.28;;
55067;SDS011;40965;52.368;9.712;2022-10-04T19:35:19;3.55;;;2.83;;
55067;SDS011;40965;52.368;9.712;2022-10-04T19:43:14;5.78;;;2.88;;
55067;SDS011;40965;52.368;9.712;2022-10-04T19:46:06;5.82;;;4.18;;
55067;SDS011;40965;52.368;9.712;2022-10-04T19:48:47;3.03;;;2.75;;
55067;SDS011;40965;52.368;9.712;2022-10-04T19:51:22;4.95;;;3.28;;
55067;SDS011;40965;52.368;9.712;2022-10-04T19:54:01;14.90;;;8.10;;
55067;SDS011;40965;52.368;9.712;2022-10-04T19:56:43;7.45;;;4.43;;
55067;SDS011;40965;52.368;9.712;2022-10-04T20:01:54;5.38;;;2.97;;
55067;SDS011;40965;52.368;9.712;2022-10-04T20:04:21;4.40;;;2.70;;
55067;SDS011;40965;52.368;9.712;2022-10-04T20:17:42;3.40;;;2.33;;
55067;SDS011;40965;52.368;9.712;2022-10-04T20:20:14;5.60;;;2.63;;
55067;SDS011;40965;52.368;9.712;2022-10-04T20:23:01;6.20;;;2.35;;
55067;SDS011;40965;52.368;9.712;2022-10-04T20:28:10;3.38;;;3.08;;
55067;SDS011;40965;52.368;9.712;2022-10-04T20:30:57;4.05;;;2.70;;
55067;SDS011;40965;52.368;9.712;2022-10-04T20:41:40;4.18;;;2.95;;
55067;SDS011;40965;52.368;9.712;2022-10-04T20:47:19;2.72;;;2.30;;
55067;SDS011;40965;52.368;9.712;2022-10-04T20:49:54;6.10;;;2.65;;
55067;SDS011;40965;52.368;9.712;2022-10-04T20:52:30;3.95;;;2.17;;
55067;SDS011;40965;52.368;9.712;2022-10-04T20:54:58;5.60;;;2.92;;
55067;SDS011;40965;52.368;9.712;2022-10-04T20:57:28;4.45;;;3.15;;
55067;SDS011;40965;52.368;9.712;2022-10-04T20:59:55;3.10;;;2.65;;
55067;SDS011;40965;52.368;9.712;2022-10-04T21:02:23;3.35;;;1.95;;
55067;SDS011;40965;52.368;9.712;2022-10-04T21:04:52;3.40;;;2.78;;
55067;SDS011;40965;52.368;9.712;2022-10-04T21:07:30;3.64;;;2.78;;
55067;SDS011;40965;52.368;9.712;2022-10-04T21:10:04;2.80;;;2.45;;
55067;SDS011;40965;52.368;9.712;2022-10-04T21:12:37;5.18;;;2.35;;
55067;SDS011;40965;52.368;9.712;2022-10-04T21:17:42;4.10;;;2.17;;
55067;SDS011;40965;52.368;9.712;2022-10-04T21:20:43;3.13;;;2.17;;
55067;SDS011;40965;52.368;9.712;2022-10-04T21:28:47;3.97;;;2.42;;
55067;SDS011;40965;52.368;9.712;2022-10-04T21:31:17;5.10;;;2.53;;
55067;SDS011;40965;52.368;9.712;2022-10-04T21:33:44;2.88;;;2.67;;
55067;SDS011;40965;52.368;9.712;2022-10-04T21:36:10;2.58;;;1.98;;
55067;SDS011;40965;52.368;9.712;2022-10-04T21:38:36;5.00;;;2.35;;
55067;SDS011;40965;52.368;9.712;2022-10-04T21:41:03;2.75;;;2.50;;
55067;SDS011;40965;52.368;9.712;2022-10-04T21:43:29;2.38;;;2.17;;
55067;SDS011;40965;52.368;9.712;2022-10-04T21:45:56;3.03;;;2.63;;
55067;SDS011;40965;52.368;9.712;2022-10-04T21:48:23;4.82;;;2.67;;
55067;SDS011;40965;52.368;9.712;2022-10-04T21:50:50;4.35;;;2.70;;
55067;SDS011;40965;52.368;9.712;2022-10-04T21:53:17;2.97;;;2.50;;
55067;SDS011;40965;52.368;9.712;2022-10-04T21:55:44;5.72;;;2.60;;
55067;SDS011;40965;52.368;9.712;2022-10-04T21:58:11;6.18;;;3.10;;
55067;SDS011;40965;52.368;9.712;2022-10-04T22:00:37;3.13;;;2.28;;
55067;SDS011;40965;52.368;9.712;2022-10-04T22:03:04;5.95;;;2.70;;
55067;SDS011;40965;52.368;9.712;2022-10-04T22:05:31;6.05;;;2.30;;
55067;SDS011;40965;52.368;9.712;2022-10-04T22:07:57;4.40;;;2.55;;
55067;SDS011;40965;52.368;9.712;2022-10-04T22:10:23;4.55;;;2.72;;
55067;SDS011;40965;52.368;9.712;2022-10-04T22:12:50;4.25;;;2.70;;
55067;SDS011;40965;52.368;9.712;2022-10-04T22:15:20;6.25;;;3.00;;
55067;SDS011;40965;52.368;9.712;2022-10-04T22:17:48;5.72;;;3.08;;
55067;SDS011;40965;52.368;9.712;2022-10-04T22:20:14;5.13;;;3.40;;
55067;SDS011;40965;52.368;9.712;2022-10-04T22:22:41;2.55;;;2.30;;
55067;SDS011;40965;52.368;9.712;2022-10-04T22:25:17;4.72;;;2.70;;
55067;SDS011;40965;52.368;9.712;2022-10-04T22:27:45;3.00;;;2.33;;
55067;SDS011;40965;52.368;9.712;2022-10-04T22:30:19;4.93;;;2.85;;
55067;SDS011;40965;52.368;9.712;2022-10-04T22:32:52;4.65;;;2.05;;
55067;SDS011;40965;52.368;9.712;2022-10-04T22:35:20;10.57;;;2.50;;
55067;SDS011;40965;52.368;9.712;2022-10-04T22:37:47;3.63;;;2.63;;
55067;SDS011;40965;52.368;9.712;2022-10-04T22:40:21;5.35;;;2.92;;
55067;SDS011;40965;52.368;9.712;2022-10-04T22:42:53;5.63;;;2.78;;
55067;SDS011;40965;52.368;9.712;2022-10-04T22:45:24;2.75;;;2.15;;
55067;SDS011;40965;52.368;9.712;2022-10-04T22:47:53;2.55;;;2.03;;
55067;SDS011;40965;52.368;9.712;2022-10-04T22:53:20;2.22;;;2.03;;
55067;SDS011;40965;52.368;9.712;2022-10-04T22:55:46;2.60;;;2.40;;
55067;SDS011;40965;52.368;9.712;2022-10-04T22:58:14;3.08;;;2.70;;
55067;SDS011;40965;52.368;9.712;2022-10-04T23:00:42;3.58;;;2.92;;
55067;SDS011;40965;52.368;9.712;2022-10-04T23:03:28;3.60;;;2.40;;
55067;SDS011;40965;52.368;9.712;2022-10-04T23:05:57;4.65;;;2.80;;
55067;SDS011;40965;52.368;9.712;2022-10-04T23:08:25;6.75;;;2.58;;
55067;SDS011;40965;52.368;9.712;2022-10-04T23:10:52;2.80;;;2.28;;
55067;SDS011;40965;52.368;9.712;2022-10-04T23:13:21;3.67;;;2.28;;
55067;SDS011;40965;52.368;9.712;2022-10-04T23:15:48;2.75;;;2.53;;
55067;SDS011;40965;52.368;9.712;2022-10-04T23:18:15;4.18;;;2.85;;
55067;SDS011;40965;52.368;9.712;2022-10-04T23:20:43;7.07;;;2.53;;
55067;SDS011;40965;52.368;9.712;2022-10-04T23:23:16;6.32;;;2.95;;
55067;SDS011;40965;52.368;9.712;2022-10-04T23:25:48;3.63;;;2.70;;
55067;SDS011;40965;52.368;9.712;2022-10-04T23:28:16;4.82;;;2.15;;
55067;SDS011;40965;52.368;9.712;2022-10-04T23:30:44;4.40;;;2.92;;
55067;SDS011;40965;52.368;9.712;2022-10-04T23:33:17;8.10;;;2.80;;
55067;SDS011;40965;52.368;9.712;2022-10-04T23:35:48;4.18;;;2.47;;
55067;SDS011;40965;52.368;9.712;2022-10-04T23:38:17;4.53;;;2.88;;
55067;SDS011;40965;52.368;9.712;2022-10-04T23:40:45;3.45;;;2.42;;
55067;SDS011;40965;52.368;9.712;2022-10-04T23:43:14;3.17;;;2.78;;
55067;SDS011;40965;52.368;9.712;2022-10-04T23:45:44;2.42;;;2.22;;
55067;SDS011;40965;52.368;9.712;2022-10-04T23:48:11;3.30;;;2.38;;
55067;SDS011;40965;52.368;9.712;2022-10-04T23:50:46;6.05;;;2.78;;
55067;SDS011;40965;52.368;9.712;2022-10-04T23:53:18;2.70;;;2.50;;
55067;SDS011;40965;52.368;9.712;2022-10-04T23:55:50;3.00;;;2.80;;
55067;SDS011;40965;52.368;9.712;2022-10-04T23:58:18;4.32;;;2.85;;
